sensor_id;sensor_type;location;lat;lon;timestamp;temperature;humidity
32187;DHT22;18686;53.084;8.872;2023-02-28T00:01:26;4.70;90.20
32187;DHT22;18686;53.084;8.872;2023-02-28T00:03:55;4.70;90.30
32187;DHT22;18686;53.084;8.872;2023-02-28T00:06:24;4.70;90.40
32187;DHT22;18686;53.084;8.872;2023-02-28T00:08:52;4.70;90.50
32187;DHT22;18686;53.084;8.872;2023-02-28T00:11:20;4.60;90.40
32187;DHT22;18686;53.084;8.872;2023-02-28T00:13:48;4.70;90.50
32187;DHT22;18686;53.084;8.872;2023-02-28T00:16:19;4.70;90.50
32187;DHT22;18686;53.084;8.872;2023-02-28T00:18:48;4.70;90.50
32187;DHT22;18686;53.084;8.872;2023-02-28T00:21:17;4.70;90.50
32187;DHT22;18686;53.084;8.872;2023-02-28T00:23:46;4.70;90.50
32187;DHT22;18686;53.084;8.872;2023-02-28T00:26:14;4.70;90.60
32187;DHT22;18686;53.084;8.872;2023-02-28T00:28:45;4.70;90.60
32187;DHT22;18686;53.084;8.872;2023-02-28T00:31:13;4.70;90.40
32187;DHT22;18686;53.084;8.872;2023-02-28T00:33:43;4.70;90.40
32187;DHT22;18686;53.084;8.872;2023-02-28T00:36:14;4.70;90.50
32187;DHT22;18686;53.084;8.872;2023-02-28T00:38:42;4.70;90.60
32187;DHT22;18686;53.084;8.872;2023-02-28T00:41:10;4.70;90.70
32187;DHT22;18686;53.084;8.872;2023-02-28T00:43:40;4.70;90.70
32187;DHT22;18686;53.084;8.872;2023-02-28T00:46:10;4.70;90.50
32187;DHT22;18686;53.084;8.872;2023-02-28T00:48:38;4.70;90.40
32187;DHT22;18686;53.084;8.872;2023-02-28T00:51:09;4.60;90.60
32187;DHT22;18686;53.084;8.872;2023-02-28T00:53:37;4.60;90.40
32187;DHT22;18686;53.084;8.872;2023-02-28T00:56:06;4.50;90.30
32187;DHT22;18686;53.084;8.872;2023-02-28T00:58:34;4.40;90.20
32187;DHT22;18686;53.084;8.872;2023-02-28T01:01:03;4.40;90.40
32187;DHT22;18686;53.084;8.872;2023-02-28T01:03:31;4.30;90.60
32187;DHT22;18686;53.084;8.872;2023-02-28T01:05:59;4.30;90.80
32187;DHT22;18686;53.084;8.872;2023-02-28T01:08:31;4.30;90.80
32187;DHT22;18686;53.084;8.872;2023-02-28T01:11:07;4.20;90.90
32187;DHT22;18686;53.084;8.872;2023-02-28T01:13:35;4.20;91.10
32187;DHT22;18686;53.084;8.872;2023-02-28T01:16:04;4.20;91.10
32187;DHT22;18686;53.084;8.872;2023-02-28T01:18:34;4.20;91.00
32187;DHT22;18686;53.084;8.872;2023-02-28T01:21:04;4.20;91.00
32187;DHT22;18686;53.084;8.872;2023-02-28T01:23:33;4.20;90.90
32187;DHT22;18686;53.084;8.872;2023-02-28T01:26:05;4.20;90.90
32187;DHT22;18686;53.084;8.872;2023-02-28T01:28:34;4.20;90.90
32187;DHT22;18686;53.084;8.872;2023-02-28T01:31:02;4.30;91.00
32187;DHT22;18686;53.084;8.872;2023-02-28T01:33:31;4.30;91.00
32187;DHT22;18686;53.084;8.872;2023-02-28T01:36:00;4.30;90.60
32187;DHT22;18686;53.084;8.872;2023-02-28T01:38:29;4.30;90.60
32187;DHT22;18686;53.084;8.872;2023-02-28T01:40:59;4.30;90.50
32187;DHT22;18686;53.084;8.872;2023-02-28T01:43:29;4.30;90.40
32187;DHT22;18686;53.084;8.872;2023-02-28T01:45:58;4.30;90.40
32187;DHT22;18686;53.084;8.872;2023-02-28T01:48:30;4.30;90.30
32187;DHT22;18686;53.084;8.872;2023-02-28T01:51:02;4.30;90.30
32187;DHT22;18686;53.084;8.872;2023-02-28T01:53:36;4.30;90.20
32187;DHT22;18686;53.084;8.872;2023-02-28T01:56:12;4.40;90.20
32187;DHT22;18686;53.084;8.872;2023-02-28T01:58:48;4.30;90.10
32187;DHT22;18686;53.084;8.872;2023-02-28T02:01:18;4.40;90.10
32187;DHT22;18686;53.084;8.872;2023-02-28T02:03:49;4.30;90.00
32187;DHT22;18686;53.084;8.872;2023-02-28T02:06:27;4.40;89.20
32187;DHT22;18686;53.084;8.872;2023-02-28T02:08:57;4.30;88.70
32187;DHT22;18686;53.084;8.872;2023-02-28T02:11:27;4.20;89.20
32187;DHT22;18686;53.084;8.872;2023-02-28T02:17:12;4.10;89.30
32187;DHT22;18686;53.084;8.872;2023-02-28T02:23:07;4.00;89.70
32187;DHT22;18686;53.084;8.872;2023-02-28T02:25:41;4.00;89.50
32187;DHT22;18686;53.084;8.872;2023-02-28T02:28:52;4.00;89.10
32187;DHT22;18686;53.084;8.872;2023-02-28T02:31:39;4.00;88.50
32187;DHT22;18686;53.084;8.872;2023-02-28T02:34:36;4.00;88.30
32187;DHT22;18686;53.084;8.872;2023-02-28T02:37:13;3.90;88.40
32187;DHT22;18686;53.084;8.872;2023-02-28T02:39:48;3.80;88.50
32187;DHT22;18686;53.084;8.872;2023-02-28T02:42:24;3.80;88.70
32187;DHT22;18686;53.084;8.872;2023-02-28T02:45:00;3.70;89.10
32187;DHT22;18686;53.084;8.872;2023-02-28T02:47:33;3.70;89.60
32187;DHT22;18686;53.084;8.872;2023-02-28T02:50:07;3.70;89.50
32187;DHT22;18686;53.084;8.872;2023-02-28T02:52:40;3.70;90.00
32187;DHT22;18686;53.084;8.872;2023-02-28T02:55:12;3.70;90.00
32187;DHT22;18686;53.084;8.872;2023-02-28T02:57:45;3.70;90.20
32187;DHT22;18686;53.084;8.872;2023-02-28T03:00:16;3.70;90.20
32187;DHT22;18686;53.084;8.872;2023-02-28T03:02:47;3.70;90.30
32187;DHT22;18686;53.084;8.872;2023-02-28T03:05:21;3.70;90.40
32187;DHT22;18686;53.084;8.872;2023-02-28T03:07:51;3.60;90.20
32187;DHT22;18686;53.084;8.872;2023-02-28T03:10:31;3.70;89.70
32187;DHT22;18686;53.084;8.872;2023-02-28T03:13:20;3.60;90.00
32187;DHT22;18686;53.084;8.872;2023-02-28T03:15:58;3.50;89.80
32187;DHT22;18686;53.084;8.872;2023-02-28T03:18:40;3.30;90.30
32187;DHT22;18686;53.084;8.872;2023-02-28T03:21:16;3.20;90.60
32187;DHT22;18686;53.084;8.872;2023-02-28T03:23:53;3.20;90.50
32187;DHT22;18686;53.084;8.872;2023-02-28T03:26:27;3.20;90.50
32187;DHT22;18686;53.084;8.872;2023-02-28T03:29:02;3.20;90.70
32187;DHT22;18686;53.084;8.872;2023-02-28T03:31:36;3.10;91.10
32187;DHT22;18686;53.084;8.872;2023-02-28T03:34:08;3.00;90.90
32187;DHT22;18686;53.084;8.872;2023-02-28T03:36:41;3.00;91.00
32187;DHT22;18686;53.084;8.872;2023-02-28T03:39:12;2.90;91.30
32187;DHT22;18686;53.084;8.872;2023-02-28T03:41:44;2.80;91.50
32187;DHT22;18686;53.084;8.872;2023-02-28T03:44:19;2.70;91.30
32187;DHT22;18686;53.084;8.872;2023-02-28T03:46:54;2.70;91.60
32187;DHT22;18686;53.084;8.872;2023-02-28T03:49:28;2.50;91.90
32187;DHT22;18686;53.084;8.872;2023-02-28T03:52:01;2.40;92.20
32187;DHT22;18686;53.084;8.872;2023-02-28T03:54:32;2.20;92.80
32187;DHT22;18686;53.084;8.872;2023-02-28T03:57:05;2.10;92.70
32187;DHT22;18686;53.084;8.872;2023-02-28T03:59:39;2.00;93.10
32187;DHT22;18686;53.084;8.872;2023-02-28T04:02:09;2.00;94.00
32187;DHT22;18686;53.084;8.872;2023-02-28T04:04:37;1.90;93.80
32187;DHT22;18686;53.084;8.872;2023-02-28T04:07:14;1.80;93.90
32187;DHT22;18686;53.084;8.872;2023-02-28T04:09:42;1.70;93.90
32187;DHT22;18686;53.084;8.872;2023-02-28T04:12:11;1.70;94.00
32187;DHT22;18686;53.084;8.872;2023-02-28T04:14:39;1.70;94.60
32187;DHT22;18686;53.084;8.872;2023-02-28T04:17:07;1.60;95.20
32187;DHT22;18686;53.084;8.872;2023-02-28T04:19:36;1.70;95.00
32187;DHT22;18686;53.084;8.872;2023-02-28T04:22:04;1.60;95.10
32187;DHT22;18686;53.084;8.872;2023-02-28T04:24:34;1.70;95.30
32187;DHT22;18686;53.084;8.872;2023-02-28T04:27:02;1.70;95.50
32187;DHT22;18686;53.084;8.872;2023-02-28T04:29:32;1.70;95.40
32187;DHT22;18686;53.084;8.872;2023-02-28T04:32:01;1.70;95.50
32187;DHT22;18686;53.084;8.872;2023-02-28T04:34:31;1.70;95.70
32187;DHT22;18686;53.084;8.872;2023-02-28T04:37:00;1.70;95.90
32187;DHT22;18686;53.084;8.872;2023-02-28T04:39:41;1.70;95.60
32187;DHT22;18686;53.084;8.872;2023-02-28T04:42:10;1.70;95.70
32187;DHT22;18686;53.084;8.872;2023-02-28T04:44:39;1.70;95.70
32187;DHT22;18686;53.084;8.872;2023-02-28T04:47:07;1.70;95.70
32187;DHT22;18686;53.084;8.872;2023-02-28T04:49:35;1.60;96.60
32187;DHT22;18686;53.084;8.872;2023-02-28T04:52:04;1.60;96.50
32187;DHT22;18686;53.084;8.872;2023-02-28T04:54:34;1.60;96.70
32187;DHT22;18686;53.084;8.872;2023-02-28T04:57:04;1.50;97.10
32187;DHT22;18686;53.084;8.872;2023-02-28T04:59:32;1.50;97.10
32187;DHT22;18686;53.084;8.872;2023-02-28T05:02:01;1.40;96.60
32187;DHT22;18686;53.084;8.872;2023-02-28T05:04:34;1.30;96.60
32187;DHT22;18686;53.084;8.872;2023-02-28T05:07:03;1.20;96.70
32187;DHT22;18686;53.084;8.872;2023-02-28T05:09:31;1.20;96.90
32187;DHT22;18686;53.084;8.872;2023-02-28T05:12:01;1.10;97.00
32187;DHT22;18686;53.084;8.872;2023-02-28T05:14:31;1.10;97.50
32187;DHT22;18686;53.084;8.872;2023-02-28T05:16:59;1.00;98.40
32187;DHT22;18686;53.084;8.872;2023-02-28T05:19:28;0.90;98.90
32187;DHT22;18686;53.084;8.872;2023-02-28T05:21:56;0.80;98.40
32187;DHT22;18686;53.084;8.872;2023-02-28T05:24:25;0.70;98.20
32187;DHT22;18686;53.084;8.872;2023-02-28T05:26:53;0.60;98.30
32187;DHT22;18686;53.084;8.872;2023-02-28T05:29:22;0.50;99.00
32187;DHT22;18686;53.084;8.872;2023-02-28T05:31:54;0.40;98.80
32187;DHT22;18686;53.084;8.872;2023-02-28T05:34:23;0.30;99.00
32187;DHT22;18686;53.084;8.872;2023-02-28T05:36:51;0.20;99.10
32187;DHT22;18686;53.084;8.872;2023-02-28T05:39:20;0.10;99.20
32187;DHT22;18686;53.084;8.872;2023-02-28T05:41:49;0.00;99.30
32187;DHT22;18686;53.084;8.872;2023-02-28T05:44:18;0.00;99.60
32187;DHT22;18686;53.084;8.872;2023-02-28T05:46:46;-0.10;99.80
32187;DHT22;18686;53.084;8.872;2023-02-28T05:49:16;-0.20;99.90
32187;DHT22;18686;53.084;8.872;2023-02-28T05:51:44;-0.20;99.90
32187;DHT22;18686;53.084;8.872;2023-02-28T05:54:12;-0.30;99.90
32187;DHT22;18686;53.084;8.872;2023-02-28T05:56:41;-0.40;99.90
32187;DHT22;18686;53.084;8.872;2023-02-28T05:59:11;-0.40;99.90
32187;DHT22;18686;53.084;8.872;2023-02-28T06:01:40;-0.50;99.90
32187;DHT22;18686;53.084;8.872;2023-02-28T06:04:10;-0.50;99.90
32187;DHT22;18686;53.084;8.872;2023-02-28T06:06:58;-0.50;99.90
32187;DHT22;18686;53.084;8.872;2023-02-28T06:09:27;-0.50;99.90
32187;DHT22;18686;53.084;8.872;2023-02-28T06:11:57;-0.50;99.90
32187;DHT22;18686;53.084;8.872;2023-02-28T06:14:26;-0.50;99.90
32187;DHT22;18686;53.084;8.872;2023-02-28T06:16:54;-0.40;99.90
32187;DHT22;18686;53.084;8.872;2023-02-28T06:19:25;-0.30;99.90
32187;DHT22;18686;53.084;8.872;2023-02-28T06:21:54;-0.30;99.90
32187;DHT22;18686;53.084;8.872;2023-02-28T06:24:25;-0.30;99.90
32187;DHT22;18686;53.084;8.872;2023-02-28T06:26:55;-0.30;99.90
32187;DHT22;18686;53.084;8.872;2023-02-28T06:29:24;-0.40;99.90
32187;DHT22;18686;53.084;8.872;2023-02-28T06:31:52;-0.40;99.90
32187;DHT22;18686;53.084;8.872;2023-02-28T06:34:21;-0.30;99.90
32187;DHT22;18686;53.084;8.872;2023-02-28T06:36:51;-0.30;99.90
32187;DHT22;18686;53.084;8.872;2023-02-28T06:39:19;-0.30;99.90
32187;DHT22;18686;53.084;8.872;2023-02-28T06:41:49;-0.20;99.90
32187;DHT22;18686;53.084;8.872;2023-02-28T06:44:22;-0.10;99.90
32187;DHT22;18686;53.084;8.872;2023-02-28T06:46:50;0.00;99.90
32187;DHT22;18686;53.084;8.872;2023-02-28T06:49:18;0.20;99.90
32187;DHT22;18686;53.084;8.872;2023-02-28T06:51:46;0.30;99.90
32187;DHT22;18686;53.084;8.872;2023-02-28T06:54:15;0.60;99.90
32187;DHT22;18686;53.084;8.872;2023-02-28T06:56:43;0.90;99.90
32187;DHT22;18686;53.084;8.872;2023-02-28T06:59:13;1.20;99.90
32187;DHT22;18686;53.084;8.872;2023-02-28T07:01:41;1.40;99.90
32187;DHT22;18686;53.084;8.872;2023-02-28T07:04:10;1.60;99.90
32187;DHT22;18686;53.084;8.872;2023-02-28T07:06:40;1.70;99.90
32187;DHT22;18686;53.084;8.872;2023-02-28T07:09:08;2.10;99.90
32187;DHT22;18686;53.084;8.872;2023-02-28T07:11:37;2.50;99.90
32187;DHT22;18686;53.084;8.872;2023-02-28T07:14:06;3.40;99.20
32187;DHT22;18686;53.084;8.872;2023-02-28T07:16:36;4.40;98.50
32187;DHT22;18686;53.084;8.872;2023-02-28T07:19:04;5.50;95.80
32187;DHT22;18686;53.084;8.872;2023-02-28T07:21:32;6.50;88.40
32187;DHT22;18686;53.084;8.872;2023-02-28T07:24:01;7.00;83.00
32187;DHT22;18686;53.084;8.872;2023-02-28T07:26:29;7.50;81.80
32187;DHT22;18686;53.084;8.872;2023-02-28T07:28:57;7.90;79.50
32187;DHT22;18686;53.084;8.872;2023-02-28T07:31:26;8.00;74.60
32187;DHT22;18686;53.084;8.872;2023-02-28T07:33:56;7.80;71.80
32187;DHT22;18686;53.084;8.872;2023-02-28T07:36:24;7.70;73.40
32187;DHT22;18686;53.084;8.872;2023-02-28T07:38:53;7.60;71.80
32187;DHT22;18686;53.084;8.872;2023-02-28T07:41:22;7.40;70.90
32187;DHT22;18686;53.084;8.872;2023-02-28T07:43:55;7.30;72.60
32187;DHT22;18686;53.084;8.872;2023-02-28T07:46:24;7.40;72.60
32187;DHT22;18686;53.084;8.872;2023-02-28T07:48:57;7.40;72.30
32187;DHT22;18686;53.084;8.872;2023-02-28T07:51:27;7.20;71.10
32187;DHT22;18686;53.084;8.872;2023-02-28T07:53:55;7.30;72.20
32187;DHT22;18686;53.084;8.872;2023-02-28T07:56:24;7.30;72.20
32187;DHT22;18686;53.084;8.872;2023-02-28T07:58:52;7.30;72.10
32187;DHT22;18686;53.084;8.872;2023-02-28T08:01:20;7.20;71.90
32187;DHT22;18686;53.084;8.872;2023-02-28T08:03:48;7.20;72.40
32187;DHT22;18686;53.084;8.872;2023-02-28T08:06:20;7.30;70.40
32187;DHT22;18686;53.084;8.872;2023-02-28T08:08:48;7.40;69.90
32187;DHT22;18686;53.084;8.872;2023-02-28T08:11:17;7.60;67.80
32187;DHT22;18686;53.084;8.872;2023-02-28T08:13:46;7.90;67.50
32187;DHT22;18686;53.084;8.872;2023-02-28T08:16:15;8.10;66.90
32187;DHT22;18686;53.084;8.872;2023-02-28T08:18:48;8.10;66.80
32187;DHT22;18686;53.084;8.872;2023-02-28T08:21:19;8.10;65.10
32187;DHT22;18686;53.084;8.872;2023-02-28T08:23:48;8.00;65.60
32187;DHT22;18686;53.084;8.872;2023-02-28T08:26:17;8.00;65.50
32187;DHT22;18686;53.084;8.872;2023-02-28T08:28:46;8.10;66.20
32187;DHT22;18686;53.084;8.872;2023-02-28T08:31:15;8.30;66.40
32187;DHT22;18686;53.084;8.872;2023-02-28T08:33:44;8.90;66.40
32187;DHT22;18686;53.084;8.872;2023-02-28T08:36:14;9.80;64.40
32187;DHT22;18686;53.084;8.872;2023-02-28T08:38:44;10.80;59.70
32187;DHT22;18686;53.084;8.872;2023-02-28T08:41:13;12.30;56.90
32187;DHT22;18686;53.084;8.872;2023-02-28T08:43:41;13.70;52.10
32187;DHT22;18686;53.084;8.872;2023-02-28T08:46:12;15.30;49.00
32187;DHT22;18686;53.084;8.872;2023-02-28T08:48:41;16.60;44.90
32187;DHT22;18686;53.084;8.872;2023-02-28T08:51:11;17.50;41.60
32187;DHT22;18686;53.084;8.872;2023-02-28T08:53:40;18.30;38.80
32187;DHT22;18686;53.084;8.872;2023-02-28T08:56:11;19.00;38.50
32187;DHT22;18686;53.084;8.872;2023-02-28T08:58:40;19.30;36.30
32187;DHT22;18686;53.084;8.872;2023-02-28T09:01:10;19.50;35.00
32187;DHT22;18686;53.084;8.872;2023-02-28T09:03:39;19.80;34.40
32187;DHT22;18686;53.084;8.872;2023-02-28T09:06:09;20.40;33.60
32187;DHT22;18686;53.084;8.872;2023-02-28T09:08:38;21.30;32.40
32187;DHT22;18686;53.084;8.872;2023-02-28T09:11:07;22.40;31.00
32187;DHT22;18686;53.084;8.872;2023-02-28T09:13:37;23.60;29.80
32187;DHT22;18686;53.084;8.872;2023-02-28T09:16:08;24.70;28.80
32187;DHT22;18686;53.084;8.872;2023-02-28T09:18:38;25.20;28.00
32187;DHT22;18686;53.084;8.872;2023-02-28T09:21:08;25.50;27.40
32187;DHT22;18686;53.084;8.872;2023-02-28T09:23:36;25.30;26.40
32187;DHT22;18686;53.084;8.872;2023-02-28T09:26:06;25.50;26.50
32187;DHT22;18686;53.084;8.872;2023-02-28T09:28:34;26.10;26.70
32187;DHT22;18686;53.084;8.872;2023-02-28T09:31:04;27.00;26.10
32187;DHT22;18686;53.084;8.872;2023-02-28T09:33:32;27.60;25.10
32187;DHT22;18686;53.084;8.872;2023-02-28T09:36:02;28.10;24.90
32187;DHT22;18686;53.084;8.872;2023-02-28T09:38:30;29.00;24.60
32187;DHT22;18686;53.084;8.872;2023-02-28T09:41:01;29.70;24.10
32187;DHT22;18686;53.084;8.872;2023-02-28T09:43:34;30.50;23.40
32187;DHT22;18686;53.084;8.872;2023-02-28T09:46:11;31.40;22.90
32187;DHT22;18686;53.084;8.872;2023-02-28T09:48:44;32.70;22.70
32187;DHT22;18686;53.084;8.872;2023-02-28T09:54:08;34.50;21.90
32187;DHT22;18686;53.084;8.872;2023-02-28T09:56:39;34.40;21.70
32187;DHT22;18686;53.084;8.872;2023-02-28T09:59:14;32.60;20.40
32187;DHT22;18686;53.084;8.872;2023-02-28T10:01:54;30.40;21.40
32187;DHT22;18686;53.084;8.872;2023-02-28T10:04:36;31.30;21.60
32187;DHT22;18686;53.084;8.872;2023-02-28T10:07:20;33.00;21.70
32187;DHT22;18686;53.084;8.872;2023-02-28T10:09:56;34.60;21.40
32187;DHT22;18686;53.084;8.872;2023-02-28T10:12:28;35.40;21.10
32187;DHT22;18686;53.084;8.872;2023-02-28T10:14:59;36.00;20.80
32187;DHT22;18686;53.084;8.872;2023-02-28T10:17:38;36.40;20.80
32187;DHT22;18686;53.084;8.872;2023-02-28T10:20:27;37.20;20.60
32187;DHT22;18686;53.084;8.872;2023-02-28T10:23:02;37.80;20.40
32187;DHT22;18686;53.084;8.872;2023-02-28T10:25:36;38.30;20.10
32187;DHT22;18686;53.084;8.872;2023-02-28T10:28:10;38.70;20.10
32187;DHT22;18686;53.084;8.872;2023-02-28T10:30:43;38.70;19.80
32187;DHT22;18686;53.084;8.872;2023-02-28T10:33:19;38.40;20.10
32187;DHT22;18686;53.084;8.872;2023-02-28T10:35:48;37.40;19.60
32187;DHT22;18686;53.084;8.872;2023-02-28T10:38:19;37.50;19.90
32187;DHT22;18686;53.084;8.872;2023-02-28T10:40:49;37.60;19.80
32187;DHT22;18686;53.084;8.872;2023-02-28T10:43:22;37.30;19.70
32187;DHT22;18686;53.084;8.872;2023-02-28T10:45:58;37.00;19.90
32187;DHT22;18686;53.084;8.872;2023-02-28T10:48:32;37.50;19.80
32187;DHT22;18686;53.084;8.872;2023-02-28T10:51:02;37.90;19.90
32187;DHT22;18686;53.084;8.872;2023-02-28T10:53:37;38.30;20.00
32187;DHT22;18686;53.084;8.872;2023-02-28T10:56:26;39.10;20.00
32187;DHT22;18686;53.084;8.872;2023-02-28T10:58:56;39.30;19.80
32187;DHT22;18686;53.084;8.872;2023-02-28T11:01:35;39.70;19.90
32187;DHT22;18686;53.084;8.872;2023-02-28T11:04:16;39.40;19.00
32187;DHT22;18686;53.084;8.872;2023-02-28T11:06:45;39.40;19.00
32187;DHT22;18686;53.084;8.872;2023-02-28T11:09:22;37.70;19.10
32187;DHT22;18686;53.084;8.872;2023-02-28T11:11:51;37.40;19.40
32187;DHT22;18686;53.084;8.872;2023-02-28T11:14:23;37.50;19.40
32187;DHT22;18686;53.084;8.872;2023-02-28T11:16:52;38.00;19.50
32187;DHT22;18686;53.084;8.872;2023-02-28T11:19:26;38.40;19.40
32187;DHT22;18686;53.084;8.872;2023-02-28T11:22:00;38.50;19.50
32187;DHT22;18686;53.084;8.872;2023-02-28T11:24:31;39.30;19.30
32187;DHT22;18686;53.084;8.872;2023-02-28T11:27:02;38.80;19.30
32187;DHT22;18686;53.084;8.872;2023-02-28T11:29:33;38.00;18.80
32187;DHT22;18686;53.084;8.872;2023-02-28T11:32:07;37.50;19.10
32187;DHT22;18686;53.084;8.872;2023-02-28T11:34:41;36.90;19.00
32187;DHT22;18686;53.084;8.872;2023-02-28T11:37:13;36.70;19.30
32187;DHT22;18686;53.084;8.872;2023-02-28T11:39:43;37.70;19.10
32187;DHT22;18686;53.084;8.872;2023-02-28T11:42:29;38.10;19.00
32187;DHT22;18686;53.084;8.872;2023-02-28T11:45:14;37.50;18.60
32187;DHT22;18686;53.084;8.872;2023-02-28T11:47:48;37.50;19.20
32187;DHT22;18686;53.084;8.872;2023-02-28T11:50:33;38.40;19.30
32187;DHT22;18686;53.084;8.872;2023-02-28T11:53:10;38.90;19.10
32187;DHT22;18686;53.084;8.872;2023-02-28T11:55:47;38.70;19.10
32187;DHT22;18686;53.084;8.872;2023-02-28T11:58:26;38.50;19.00
32187;DHT22;18686;53.084;8.872;2023-02-28T12:01:17;39.20;19.00
32187;DHT22;18686;53.084;8.872;2023-02-28T12:03:58;39.30;19.10
32187;DHT22;18686;53.084;8.872;2023-02-28T12:06:33;39.50;18.60
32187;DHT22;18686;53.084;8.872;2023-02-28T12:09:13;39.10;19.00
32187;DHT22;18686;53.084;8.872;2023-02-28T12:11:52;38.50;18.50
32187;DHT22;18686;53.084;8.872;2023-02-28T12:14:46;36.80;19.10
32187;DHT22;18686;53.084;8.872;2023-02-28T12:17:35;36.80;19.20
32187;DHT22;18686;53.084;8.872;2023-02-28T12:20:14;37.50;19.20
32187;DHT22;18686;53.084;8.872;2023-02-28T12:22:54;37.70;19.10
32187;DHT22;18686;53.084;8.872;2023-02-28T12:25:43;37.70;19.30
32187;DHT22;18686;53.084;8.872;2023-02-28T12:28:21;37.80;19.30
32187;DHT22;18686;53.084;8.872;2023-02-28T12:30:54;38.40;19.40
32187;DHT22;18686;53.084;8.872;2023-02-28T12:33:27;39.30;19.40
32187;DHT22;18686;53.084;8.872;2023-02-28T12:35:58;39.60;19.40
32187;DHT22;18686;53.084;8.872;2023-02-28T12:38:31;39.70;19.20
32187;DHT22;18686;53.084;8.872;2023-02-28T12:41:05;39.70;19.30
32187;DHT22;18686;53.084;8.872;2023-02-28T12:43:38;39.60;19.20
32187;DHT22;18686;53.084;8.872;2023-02-28T12:46:12;39.20;19.00
32187;DHT22;18686;53.084;8.872;2023-02-28T12:48:43;38.80;18.70
32187;DHT22;18686;53.084;8.872;2023-02-28T12:51:13;38.70;18.50
32187;DHT22;18686;53.084;8.872;2023-02-28T12:53:53;38.70;18.50
32187;DHT22;18686;53.084;8.872;2023-02-28T12:56:33;38.40;18.60
32187;DHT22;18686;53.084;8.872;2023-02-28T12:59:10;38.20;18.50
32187;DHT22;18686;53.084;8.872;2023-02-28T13:01:56;38.10;18.20
32187;DHT22;18686;53.084;8.872;2023-02-28T13:04:36;37.10;18.50
32187;DHT22;18686;53.084;8.872;2023-02-28T13:07:23;37.30;18.80
32187;DHT22;18686;53.084;8.872;2023-02-28T13:09:59;37.40;18.60
32187;DHT22;18686;53.084;8.872;2023-02-28T13:12:28;37.10;18.50
32187;DHT22;18686;53.084;8.872;2023-02-28T13:15:05;36.40;18.80
32187;DHT22;18686;53.084;8.872;2023-02-28T13:17:39;36.40;18.70
32187;DHT22;18686;53.084;8.872;2023-02-28T13:20:16;36.10;18.70
32187;DHT22;18686;53.084;8.872;2023-02-28T13:22:46;36.00;19.00
32187;DHT22;18686;53.084;8.872;2023-02-28T13:31:38;32.00;19.30
32187;DHT22;18686;53.084;8.872;2023-02-28T13:34:27;30.70;19.90
32187;DHT22;18686;53.084;8.872;2023-02-28T13:37:34;30.10;20.10
32187;DHT22;18686;53.084;8.872;2023-02-28T13:40:27;29.70;20.00
32187;DHT22;18686;53.084;8.872;2023-02-28T13:42:56;28.90;20.50
32187;DHT22;18686;53.084;8.872;2023-02-28T13:45:28;28.40;20.60
32187;DHT22;18686;53.084;8.872;2023-02-28T13:48:01;28.00;20.90
32187;DHT22;18686;53.084;8.872;2023-02-28T13:50:33;27.80;21.00
32187;DHT22;18686;53.084;8.872;2023-02-28T13:53:41;27.60;21.20
32187;DHT22;18686;53.084;8.872;2023-02-28T13:56:30;27.40;21.20
32187;DHT22;18686;53.084;8.872;2023-02-28T13:59:12;26.90;21.30
32187;DHT22;18686;53.084;8.872;2023-02-28T14:01:57;25.80;21.80
32187;DHT22;18686;53.084;8.872;2023-02-28T14:04:50;24.70;22.30
32187;DHT22;18686;53.084;8.872;2023-02-28T14:07:24;23.40;22.40
32187;DHT22;18686;53.084;8.872;2023-02-28T14:10:00;22.40;23.10
32187;DHT22;18686;53.084;8.872;2023-02-28T14:13:01;21.50;23.60
32187;DHT22;18686;53.084;8.872;2023-02-28T14:15:41;20.60;24.40
32187;DHT22;18686;53.084;8.872;2023-02-28T14:18:25;19.90;25.00
32187;DHT22;18686;53.084;8.872;2023-02-28T14:21:03;19.30;25.50
32187;DHT22;18686;53.084;8.872;2023-02-28T14:24:03;18.70;26.30
32187;DHT22;18686;53.084;8.872;2023-02-28T14:26:49;18.40;26.20
32187;DHT22;18686;53.084;8.872;2023-02-28T14:29:32;18.20;26.70
32187;DHT22;18686;53.084;8.872;2023-02-28T14:32:11;18.00;26.80
32187;DHT22;18686;53.084;8.872;2023-02-28T14:34:45;17.60;26.90
32187;DHT22;18686;53.084;8.872;2023-02-28T14:37:22;17.40;27.30
32187;DHT22;18686;53.084;8.872;2023-02-28T14:39:53;17.20;27.70
32187;DHT22;18686;53.084;8.872;2023-02-28T14:42:31;17.10;28.00
32187;DHT22;18686;53.084;8.872;2023-02-28T14:45:00;16.80;28.40
32187;DHT22;18686;53.084;8.872;2023-02-28T14:47:31;16.50;28.60
32187;DHT22;18686;53.084;8.872;2023-02-28T14:50:01;16.30;28.50
32187;DHT22;18686;53.084;8.872;2023-02-28T14:52:32;16.20;28.50
32187;DHT22;18686;53.084;8.872;2023-02-28T14:55:05;16.00;28.50
32187;DHT22;18686;53.084;8.872;2023-02-28T14:57:39;15.60;28.30
32187;DHT22;18686;53.084;8.872;2023-02-28T15:00:15;15.30;28.80
32187;DHT22;18686;53.084;8.872;2023-02-28T15:02:44;14.80;29.80
32187;DHT22;18686;53.084;8.872;2023-02-28T15:05:34;14.50;30.00
32187;DHT22;18686;53.084;8.872;2023-02-28T15:08:09;14.10;30.70
32187;DHT22;18686;53.084;8.872;2023-02-28T15:10:39;13.70;31.60
32187;DHT22;18686;53.084;8.872;2023-02-28T15:13:13;13.30;32.40
32187;DHT22;18686;53.084;8.872;2023-02-28T15:15:45;13.00;33.10
32187;DHT22;18686;53.084;8.872;2023-02-28T15:18:41;12.70;33.80
32187;DHT22;18686;53.084;8.872;2023-02-28T15:21:13;12.50;34.40
32187;DHT22;18686;53.084;8.872;2023-02-28T15:23:49;12.30;34.80
32187;DHT22;18686;53.084;8.872;2023-02-28T15:26:20;12.00;34.60
32187;DHT22;18686;53.084;8.872;2023-02-28T15:28:51;11.80;36.60
32187;DHT22;18686;53.084;8.872;2023-02-28T15:31:26;11.60;35.90
32187;DHT22;18686;53.084;8.872;2023-02-28T15:34:04;11.40;36.10
32187;DHT22;18686;53.084;8.872;2023-02-28T15:36:34;11.20;35.40
32187;DHT22;18686;53.084;8.872;2023-02-28T15:39:19;11.10;36.00
32187;DHT22;18686;53.084;8.872;2023-02-28T15:41:48;10.80;35.50
32187;DHT22;18686;53.084;8.872;2023-02-28T15:44:27;10.50;35.80
32187;DHT22;18686;53.084;8.872;2023-02-28T15:46:59;10.30;36.50
32187;DHT22;18686;53.084;8.872;2023-02-28T15:49:32;10.10;36.80
32187;DHT22;18686;53.084;8.872;2023-02-28T15:52:13;9.90;37.80
32187;DHT22;18686;53.084;8.872;2023-02-28T15:54:45;9.60;38.50
32187;DHT22;18686;53.084;8.872;2023-02-28T15:57:17;9.40;38.90
32187;DHT22;18686;53.084;8.872;2023-02-28T15:59:50;9.30;40.00
32187;DHT22;18686;53.084;8.872;2023-02-28T16:02:21;9.10;40.20
32187;DHT22;18686;53.084;8.872;2023-02-28T16:04:58;8.90;40.50
32187;DHT22;18686;53.084;8.872;2023-02-28T16:07:28;8.70;40.60
32187;DHT22;18686;53.084;8.872;2023-02-28T16:09:58;8.50;40.90
32187;DHT22;18686;53.084;8.872;2023-02-28T16:12:28;8.30;41.00
32187;DHT22;18686;53.084;8.872;2023-02-28T16:15:01;8.20;42.00
32187;DHT22;18686;53.084;8.872;2023-02-28T16:17:34;8.00;41.60
32187;DHT22;18686;53.084;8.872;2023-02-28T16:20:12;7.80;41.80
32187;DHT22;18686;53.084;8.872;2023-02-28T16:22:41;7.70;42.70
32187;DHT22;18686;53.084;8.872;2023-02-28T16:25:16;7.50;43.50
32187;DHT22;18686;53.084;8.872;2023-02-28T16:27:47;7.40;44.00
32187;DHT22;18686;53.084;8.872;2023-02-28T16:30:20;7.20;44.10